sensor_id;sensor_type;location;lat;lon;timestamp;pressure;altitude;pressure_sealevel;temperature;humidity
65716;BME280;63484;52.054;8.518;2022-12-13T00:04:57;100397.75;;;-4.23;94.94
65716;BME280;63484;52.054;8.518;2022-12-13T00:09:57;100391.81;;;-4.28;94.76
65716;BME280;63484;52.054;8.518;2022-12-13T00:14:58;100385.00;;;-4.35;94.63
65716;BME280;63484;52.054;8.518;2022-12-13T00:19:58;100379.06;;;-4.42;94.71
65716;BME280;63484;52.054;8.518;2022-12-13T00:24:59;100379.94;;;-4.47;94.62
65716;BME280;63484;52.054;8.518;2022-12-13T00:29:59;100369.75;;;-4.56;94.44
65716;BME280;63484;52.054;8.518;2022-12-13T00:35:01;100374.88;;;-4.56;94.28
65716;BME280;63484;52.054;8.518;2022-12-13T00:40:01;100374.00;;;-4.55;94.39
65716;BME280;63484;52.054;8.518;2022-12-13T00:45:02;100380.84;;;-4.53;94.69
65716;BME280;63484;52.054;8.518;2022-12-13T00:50:04;100365.50;;;-4.57;94.47
65716;BME280;63484;52.054;8.518;2022-12-13T00:55:05;100370.63;;;-4.57;94.53
65716;BME280;63484;52.054;8.518;2022-12-13T01:00:06;100375.69;;;-4.51;94.67
65716;BME280;63484;52.054;8.518;2022-12-13T01:05:07;100371.47;;;-4.61;94.37
65716;BME280;63484;52.054;8.518;2022-12-13T01:10:08;100373.22;;;-4.68;94.34
65716;BME280;63484;52.054;8.518;2022-12-13T01:15:08;100369.78;;;-4.68;94.20
65716;BME280;63484;52.054;8.518;2022-12-13T01:20:09;100363.00;;;-4.72;93.87
65716;BME280;63484;52.054;8.518;2022-12-13T01:25:10;100363.81;;;-4.73;93.78
65716;BME280;63484;52.054;8.518;2022-12-13T01:30:10;100363.84;;;-4.78;93.52
65716;BME280;63484;52.054;8.518;2022-12-13T01:35:11;100369.00;;;-4.79;93.16
65716;BME280;63484;52.054;8.518;2022-12-13T01:40:13;100362.19;;;-4.85;93.27
65716;BME280;63484;52.054;8.518;2022-12-13T01:45:22;100359.63;;;-4.89;93.54
65716;BME280;63484;52.054;8.518;2022-12-13T01:50:32;100354.50;;;-4.89;93.51
65716;BME280;63484;52.054;8.518;2022-12-13T01:55:35;100351.09;;;-4.94;93.56
65716;BME280;63484;52.054;8.518;2022-12-13T02:00:37;100356.25;;;-5.00;93.33
65716;BME280;63484;52.054;8.518;2022-12-13T02:05:43;100354.56;;;-5.01;93.76
65716;BME280;63484;52.054;8.518;2022-12-13T02:10:46;100357.97;;;-5.05;93.47
65716;BME280;63484;52.054;8.518;2022-12-13T02:21:08;100362.25;;;-5.07;93.84
65716;BME280;63484;52.054;8.518;2022-12-13T02:26:34;100358.00;;;-5.10;93.60
65716;BME280;63484;52.054;8.518;2022-12-13T02:42:00;100349.47;;;-5.16;93.54
65716;BME280;63484;52.054;8.518;2022-12-13T02:47:07;100341.81;;;-5.18;93.63
65716;BME280;63484;52.054;8.518;2022-12-13T02:52:11;100345.22;;;-5.17;93.79
65716;BME280;63484;52.054;8.518;2022-12-13T02:57:31;100353.75;;;-5.17;93.94
65716;BME280;63484;52.054;8.518;2022-12-13T03:02:48;100347.81;;;-5.20;93.55
65716;BME280;63484;52.054;8.518;2022-12-13T03:13:13;100352.94;;;-5.29;93.70
65716;BME280;63484;52.054;8.518;2022-12-13T03:18:36;100364.88;;;-5.31;93.61
65716;BME280;63484;52.054;8.518;2022-12-13T03:23:37;100368.31;;;-5.34;93.26
65716;BME280;63484;52.054;8.518;2022-12-13T03:28:38;100367.47;;;-5.46;93.04
65716;BME280;63484;52.054;8.518;2022-12-13T03:33:39;100362.38;;;-5.48;93.34
65716;BME280;63484;52.054;8.518;2022-12-13T03:38:39;100358.94;;;-5.50;93.27
65716;BME280;63484;52.054;8.518;2022-12-13T03:43:40;100355.56;;;-5.58;92.99
65716;BME280;63484;52.054;8.518;2022-12-13T03:48:41;100355.53;;;-5.52;93.43
65716;BME280;63484;52.054;8.518;2022-12-13T03:53:41;100352.13;;;-5.61;92.65
65716;BME280;63484;52.054;8.518;2022-12-13T03:58:43;100354.69;;;-5.64;92.88
65716;BME280;63484;52.054;8.518;2022-12-13T04:03:45;100359.81;;;-5.64;92.99
65716;BME280;63484;52.054;8.518;2022-12-13T04:08:46;100348.72;;;-5.62;93.12
65716;BME280;63484;52.054;8.518;2022-12-13T04:13:47;100347.00;;;-5.55;93.73
65716;BME280;63484;52.054;8.518;2022-12-13T04:18:47;100342.75;;;-5.58;93.43
65716;BME280;63484;52.054;8.518;2022-12-13T04:23:48;100346.13;;;-5.57;93.51
65716;BME280;63484;52.054;8.518;2022-12-13T04:28:48;100343.59;;;-5.63;93.40
65716;BME280;63484;52.054;8.518;2022-12-13T04:33:49;100345.31;;;-5.73;93.03
65716;BME280;63484;52.054;8.518;2022-12-13T04:38:49;100351.31;;;-5.76;92.60
65716;BME280;63484;52.054;8.518;2022-12-13T04:43:52;100340.19;;;-5.70;93.04
65716;BME280;63484;52.054;8.518;2022-12-13T04:48:53;100335.94;;;-5.68;92.89
65716;BME280;63484;52.054;8.518;2022-12-13T04:53:53;100346.16;;;-5.63;93.24
65716;BME280;63484;52.054;8.518;2022-12-13T04:58:53;100346.16;;;-5.60;92.88
65716;BME280;63484;52.054;8.518;2022-12-13T05:03:54;100347.03;;;-5.63;92.96
65716;BME280;63484;52.054;8.518;2022-12-13T05:08:54;100344.47;;;-5.61;92.40
65716;BME280;63484;52.054;8.518;2022-12-13T05:13:55;100335.09;;;-5.62;92.50
65716;BME280;63484;52.054;8.518;2022-12-13T05:18:55;100331.66;;;-5.60;92.79
65716;BME280;63484;52.054;8.518;2022-12-13T05:23:55;100328.25;;;-5.63;92.66
65716;BME280;63484;52.054;8.518;2022-12-13T05:28:56;100327.41;;;-5.69;92.08
65716;BME280;63484;52.054;8.518;2022-12-13T05:33:56;100330.84;;;-5.74;92.26
65716;BME280;63484;52.054;8.518;2022-12-13T05:38:57;100320.56;;;-5.79;92.42
65716;BME280;63484;52.054;8.518;2022-12-13T05:43:57;100323.16;;;-5.82;91.94
65716;BME280;63484;52.054;8.518;2022-12-13T05:48:57;100313.78;;;-5.80;92.04
65716;BME280;63484;52.054;8.518;2022-12-13T05:53:58;100306.16;;;-5.86;92.12
65716;BME280;63484;52.054;8.518;2022-12-13T05:58:58;100301.88;;;-5.84;92.29
65716;BME280;63484;52.054;8.518;2022-12-13T06:03:59;100305.28;;;-5.89;91.84
65716;BME280;63484;52.054;8.518;2022-12-13T06:08:59;100302.72;;;-5.89;91.94
65716;BME280;63484;52.054;8.518;2022-12-13T06:14:00;100301.84;;;-5.81;92.39
65716;BME280;63484;52.054;8.518;2022-12-13T06:19:01;100301.84;;;-5.81;92.33
65716;BME280;63484;52.054;8.518;2022-12-13T06:24:01;100308.63;;;-5.72;92.22
65716;BME280;63484;52.054;8.518;2022-12-13T06:29:04;100309.50;;;-5.72;92.17
65716;BME280;63484;52.054;8.518;2022-12-13T06:34:05;100298.41;;;-5.77;92.01
65716;BME280;63484;52.054;8.518;2022-12-13T06:39:06;100303.53;;;-5.77;91.92
65716;BME280;63484;52.054;8.518;2022-12-13T06:44:06;100306.94;;;-5.76;92.18
65716;BME280;63484;52.054;8.518;2022-12-13T06:49:07;100310.38;;;-5.76;92.50
65716;BME280;63484;52.054;8.518;2022-12-13T06:54:07;100318.88;;;-5.77;92.12
65716;BME280;63484;52.054;8.518;2022-12-13T06:59:07;100321.44;;;-5.80;91.83
65716;BME280;63484;52.054;8.518;2022-12-13T07:04:09;100330.84;;;-5.85;91.82
65716;BME280;63484;52.054;8.518;2022-12-13T07:09:10;100325.75;;;-5.83;91.96
65716;BME280;63484;52.054;8.518;2022-12-13T07:14:10;100330.00;;;-5.88;91.74
65716;BME280;63484;52.054;8.518;2022-12-13T07:19:11;100330.88;;;-5.91;91.88
65716;BME280;63484;52.054;8.518;2022-12-13T07:24:11;100329.16;;;-5.84;92.19
65716;BME280;63484;52.054;8.518;2022-12-13T07:29:11;100337.66;;;-5.79;92.27
65716;BME280;63484;52.054;8.518;2022-12-13T07:34:12;100334.25;;;-5.80;91.77
65716;BME280;63484;52.054;8.518;2022-12-13T07:39:12;100337.66;;;-5.76;91.75
65716;BME280;63484;52.054;8.518;2022-12-13T07:44:13;100343.63;;;-5.71;91.32
65716;BME280;63484;52.054;8.518;2022-12-13T07:49:13;100341.91;;;-5.61;91.66
65716;BME280;63484;52.054;8.518;2022-12-13T07:54:13;100344.44;;;-5.48;91.69
65716;BME280;63484;52.054;8.518;2022-12-13T07:59:14;100341.00;;;-5.33;90.98
65716;BME280;63484;52.054;8.518;2022-12-13T08:04:14;100339.25;;;-5.22;90.06
65716;BME280;63484;52.054;8.518;2022-12-13T08:09:15;100336.69;;;-5.16;89.50
65716;BME280;63484;52.054;8.518;2022-12-13T08:14:15;100345.16;;;-4.96;88.53
65716;BME280;63484;52.054;8.518;2022-12-13T08:19:16;100347.59;;;-4.69;87.71
65716;BME280;63484;52.054;8.518;2022-12-13T08:24:18;100340.44;;;-4.16;85.23
65716;BME280;63484;52.054;8.518;2022-12-13T08:29:19;100335.59;;;-3.49;82.29
65716;BME280;63484;52.054;8.518;2022-12-13T08:34:19;100331.09;;;-3.28;80.19
65716;BME280;63484;52.054;8.518;2022-12-13T08:39:19;100343.91;;;-3.25;79.71
65716;BME280;63484;52.054;8.518;2022-12-13T08:44:20;100340.84;;;-3.64;82.21
65716;BME280;63484;52.054;8.518;2022-12-13T08:49:20;100344.50;;;-3.86;83.04
65716;BME280;63484;52.054;8.518;2022-12-13T08:54:20;100344.59;;;-4.00;84.50
65716;BME280;63484;52.054;8.518;2022-12-13T08:59:22;100347.13;;;-3.97;84.50
65716;BME280;63484;52.054;8.518;2022-12-13T09:04:24;100351.34;;;-3.90;84.44
65716;BME280;63484;52.054;8.518;2022-12-13T09:09:27;100357.34;;;-3.89;84.86
65716;BME280;63484;52.054;8.518;2022-12-13T09:14:27;100359.88;;;-3.86;84.73
65716;BME280;63484;52.054;8.518;2022-12-13T09:19:28;100356.50;;;-3.93;85.12
65716;BME280;63484;52.054;8.518;2022-12-13T09:24:28;100362.47;;;-3.88;85.28
65716;BME280;63484;52.054;8.518;2022-12-13T09:29:29;100365.81;;;-3.80;85.83
65716;BME280;63484;52.054;8.518;2022-12-13T09:34:30;100368.19;;;-3.56;85.79
65716;BME280;63484;52.054;8.518;2022-12-13T09:39:32;100374.00;;;-3.40;84.83
65716;BME280;63484;52.054;8.518;2022-12-13T09:44:34;100375.72;;;-3.38;84.74
65716;BME280;63484;52.054;8.518;2022-12-13T09:49:39;100368.00;;;-3.36;85.03
65716;BME280;63484;52.054;8.518;2022-12-13T09:54:40;100371.34;;;-3.28;84.59
65716;BME280;63484;52.054;8.518;2022-12-13T09:59:41;100367.88;;;-3.23;85.96
65716;BME280;63484;52.054;8.518;2022-12-13T10:04:42;100353.13;;;-3.06;85.09
65716;BME280;63484;52.054;8.518;2022-12-13T10:09:43;100362.44;;;-2.96;84.36
65716;BME280;63484;52.054;8.518;2022-12-13T10:14:50;100359.00;;;-2.96;85.39
65716;BME280;63484;52.054;8.518;2022-12-13T10:19:53;100349.41;;;-2.80;83.96
65716;BME280;63484;52.054;8.518;2022-12-13T10:24:56;100340.78;;;-2.76;84.09
65716;BME280;63484;52.054;8.518;2022-12-13T10:30:04;100337.16;;;-2.63;83.77
65716;BME280;63484;52.054;8.518;2022-12-13T10:35:29;100339.69;;;-2.59;83.22
65716;BME280;63484;52.054;8.518;2022-12-13T10:40:38;100341.25;;;-2.47;84.20
65716;BME280;63484;52.054;8.518;2022-12-13T10:50:59;100317.75;;;-2.25;82.50
65716;BME280;63484;52.054;8.518;2022-12-13T10:56:01;100306.47;;;-2.16;82.25
65716;BME280;63484;52.054;8.518;2022-12-13T11:06:17;100302.00;;;-2.05;82.32
65716;BME280;63484;52.054;8.518;2022-12-13T11:11:26;100296.56;;;-1.87;81.60
65716;BME280;63484;52.054;8.518;2022-12-13T11:16:38;100281.81;;;-1.79;80.90
65716;BME280;63484;52.054;8.518;2022-12-13T11:21:48;100264.72;;;-1.82;81.56
65716;BME280;63484;52.054;8.518;2022-12-13T11:26:58;100262.06;;;-1.77;81.87
65716;BME280;63484;52.054;8.518;2022-12-13T11:32:29;100256.59;;;-1.62;81.49
65716;BME280;63484;52.054;8.518;2022-12-13T11:37:44;100246.28;;;-1.59;81.45
65716;BME280;63484;52.054;8.518;2022-12-13T11:43:00;100229.00;;;-1.54;80.97
65716;BME280;63484;52.054;8.518;2022-12-13T11:49:01;100227.88;;;-1.43;80.74
65716;BME280;63484;52.054;8.518;2022-12-13T11:54:02;100233.75;;;-1.33;80.93
65716;BME280;63484;52.054;8.518;2022-12-13T12:04:49;100224.97;;;-1.26;81.42
65716;BME280;63484;52.054;8.518;2022-12-13T12:09:56;100225.78;;;-1.22;81.63
65716;BME280;63484;52.054;8.518;2022-12-13T12:15:04;100219.50;;;-1.09;80.82
65716;BME280;63484;52.054;8.518;2022-12-13T12:20:05;100203.94;;;-1.06;81.23
65716;BME280;63484;52.054;8.518;2022-12-13T12:30:23;100197.66;;;-0.93;80.30
65716;BME280;63484;52.054;8.518;2022-12-13T12:36:00;100196.78;;;-0.94;80.52
65716;BME280;63484;52.054;8.518;2022-12-13T12:41:29;100187.91;;;-0.81;79.18
65716;BME280;63484;52.054;8.518;2022-12-13T12:52:03;100195.84;;;-0.90;80.78
65716;BME280;63484;52.054;8.518;2022-12-13T12:57:23;100187.09;;;-0.83;81.08
65716;BME280;63484;52.054;8.518;2022-12-13T13:02:44;100181.13;;;-0.85;80.69
65716;BME280;63484;52.054;8.518;2022-12-13T13:07:53;100182.03;;;-0.87;81.67
65716;BME280;63484;52.054;8.518;2022-12-13T13:12:55;100173.63;;;-0.95;81.82
65716;BME280;63484;52.054;8.518;2022-12-13T13:17:56;100164.44;;;-1.08;81.81
65716;BME280;63484;52.054;8.518;2022-12-13T13:22:57;100164.44;;;-1.08;82.38
65716;BME280;63484;52.054;8.518;2022-12-13T13:28:02;100164.56;;;-1.13;83.87
65716;BME280;63484;52.054;8.518;2022-12-13T13:33:43;100173.19;;;-1.14;83.08
65716;BME280;63484;52.054;8.518;2022-12-13T13:38:50;100174.84;;;-1.11;82.93
65716;BME280;63484;52.054;8.518;2022-12-13T13:43:50;100183.50;;;-1.14;83.40
65716;BME280;63484;52.054;8.518;2022-12-13T13:48:57;100178.59;;;-1.26;83.08
65716;BME280;63484;52.054;8.518;2022-12-13T14:00:04;100175.25;;;-1.31;84.08
65716;BME280;63484;52.054;8.518;2022-12-13T14:10:36;100177.28;;;-1.45;84.39
65716;BME280;63484;52.054;8.518;2022-12-13T14:31:56;100183.19;;;-1.84;86.06
65716;BME280;63484;52.054;8.518;2022-12-13T14:37:01;100193.53;;;-1.86;86.00
65716;BME280;63484;52.054;8.518;2022-12-13T14:42:20;100187.06;;;-2.06;87.04
65716;BME280;63484;52.054;8.518;2022-12-13T14:47:21;100186.38;;;-2.16;87.08
65716;BME280;63484;52.054;8.518;2022-12-13T14:52:24;100189.78;;;-2.17;87.33
65716;BME280;63484;52.054;8.518;2022-12-13T14:57:31;100189.19;;;-2.31;87.44
65716;BME280;63484;52.054;8.518;2022-12-13T15:02:32;100192.00;;;-2.46;88.17
65716;BME280;63484;52.054;8.518;2022-12-13T15:07:37;100185.22;;;-2.50;88.25
65716;BME280;63484;52.054;8.518;2022-12-13T15:12:40;100177.00;;;-2.71;88.53
65716;BME280;63484;52.054;8.518;2022-12-13T15:17:41;100181.41;;;-2.79;89.21
65716;BME280;63484;52.054;8.518;2022-12-13T15:23:01;100178.19;;;-2.94;89.36
65716;BME280;63484;52.054;8.518;2022-12-13T15:28:08;100173.16;;;-3.03;89.89
65716;BME280;63484;52.054;8.518;2022-12-13T15:33:23;100169.91;;;-3.14;89.98
65716;BME280;63484;52.054;8.518;2022-12-13T15:38:23;100172.53;;;-3.17;90.13
65716;BME280;63484;52.054;8.518;2022-12-13T15:43:34;100170.16;;;-3.32;89.27
65716;BME280;63484;52.054;8.518;2022-12-13T15:48:38;100172.78;;;-3.36;89.37
65716;BME280;63484;52.054;8.518;2022-12-13T15:54:05;100166.88;;;-3.44;89.41
65716;BME280;63484;52.054;8.518;2022-12-13T15:59:27;100159.31;;;-3.56;89.86
65716;BME280;63484;52.054;8.518;2022-12-13T16:04:30;100152.59;;;-3.65;89.70
65716;BME280;63484;52.054;8.518;2022-12-13T16:09:34;100147.53;;;-3.72;89.60
65716;BME280;63484;52.054;8.518;2022-12-13T16:14:40;100143.34;;;-3.78;89.76
65716;BME280;63484;52.054;8.518;2022-12-13T16:19:42;100138.22;;;-3.81;90.55
65716;BME280;63484;52.054;8.518;2022-12-13T16:24:42;100132.28;;;-3.83;89.88
65716;BME280;63484;52.054;8.518;2022-12-13T16:29:43;100127.19;;;-3.89;89.72
65716;BME280;63484;52.054;8.518;2022-12-13T16:34:43;100121.28;;;-3.92;89.92
65716;BME280;63484;52.054;8.518;2022-12-13T16:39:44;100123.88;;;-3.98;90.14
65716;BME280;63484;52.054;8.518;2022-12-13T16:44:45;100125.69;;;-4.05;90.72
65716;BME280;63484;52.054;8.518;2022-12-13T16:49:46;100120.63;;;-4.11;90.71
65716;BME280;63484;52.054;8.518;2022-12-13T16:54:49;100111.25;;;-4.16;90.43
65716;BME280;63484;52.054;8.518;2022-12-13T16:59:50;100101.94;;;-4.23;90.74
65716;BME280;63484;52.054;8.518;2022-12-13T17:04:50;100108.03;;;-4.32;90.55
65716;BME280;63484;52.054;8.518;2022-12-13T17:09:51;100092.69;;;-4.38;90.72
65716;BME280;63484;52.054;8.518;2022-12-13T17:14:51;100110.66;;;-4.38;90.87
65716;BME280;63484;52.054;8.518;2022-12-13T17:19:52;100115.81;;;-4.44;90.76
65716;BME280;63484;52.054;8.518;2022-12-13T17:24:53;100115.03;;;-4.52;91.05
65716;BME280;63484;52.054;8.518;2022-12-13T17:29:53;100124.47;;;-4.54;91.09
65716;BME280;63484;52.054;8.518;2022-12-13T17:34:54;100118.47;;;-4.52;90.74
65716;BME280;63484;52.054;8.518;2022-12-13T17:39:55;100120.16;;;-4.52;90.64
65716;BME280;63484;52.054;8.518;2022-12-13T17:44:55;100123.59;;;-4.53;90.78
65716;BME280;63484;52.054;8.518;2022-12-13T17:49:55;100114.22;;;-4.53;90.41
65716;BME280;63484;52.054;8.518;2022-12-13T17:54:56;100109.06;;;-4.50;89.65
65716;BME280;63484;52.054;8.518;2022-12-13T17:59:57;100108.16;;;-4.47;89.50
65716;BME280;63484;52.054;8.518;2022-12-13T18:04:57;100109.03;;;-4.47;90.05
65716;BME280;63484;52.054;8.518;2022-12-13T18:09:58;100108.16;;;-4.47;89.30
65716;BME280;63484;52.054;8.518;2022-12-13T18:14:58;100102.22;;;-4.52;88.46
65716;BME280;63484;52.054;8.518;2022-12-13T18:19:58;100099.69;;;-4.55;88.49
65716;BME280;63484;52.054;8.518;2022-12-13T18:25:00;100101.41;;;-4.54;88.14
65716;BME280;63484;52.054;8.518;2022-12-13T18:30:00;100100.59;;;-4.59;88.13
65716;BME280;63484;52.054;8.518;2022-12-13T18:35:00;100090.34;;;-4.58;88.01
65716;BME280;63484;52.054;8.518;2022-12-13T18:40:01;100084.34;;;-4.58;87.49
65716;BME280;63484;52.054;8.518;2022-12-13T18:45:04;100079.25;;;-4.61;87.68
65716;BME280;63484;52.054;8.518;2022-12-13T18:50:05;100081.84;;;-4.63;87.96
65716;BME280;63484;52.054;8.518;2022-12-13T18:55:05;100083.53;;;-4.62;88.08
65716;BME280;63484;52.054;8.518;2022-12-13T19:00:06;100077.56;;;-4.62;87.68
65716;BME280;63484;52.054;8.518;2022-12-13T19:05:07;100080.13;;;-4.62;87.63
65716;BME280;63484;52.054;8.518;2022-12-13T19:10:08;100078.41;;;-4.62;87.68
65716;BME280;63484;52.054;8.518;2022-12-13T19:15:08;100069.09;;;-4.72;87.86
65716;BME280;63484;52.054;8.518;2022-12-13T19:20:09;100066.53;;;-4.72;88.00
65716;BME280;63484;52.054;8.518;2022-12-13T19:25:10;100064.78;;;-4.67;87.57
65716;BME280;63484;52.054;8.518;2022-12-13T19:30:11;100061.41;;;-4.69;87.36
65716;BME280;63484;52.054;8.518;2022-12-13T19:35:11;100059.69;;;-4.70;87.41
65716;BME280;63484;52.054;8.518;2022-12-13T19:40:11;100056.28;;;-4.72;87.57
65716;BME280;63484;52.054;8.518;2022-12-13T19:45:13;100057.13;;;-4.71;87.41
65716;BME280;63484;52.054;8.518;2022-12-13T19:50:13;100036.66;;;-4.74;87.27
65716;BME280;63484;52.054;8.518;2022-12-13T19:55:14;100036.63;;;-4.71;87.26
65716;BME280;63484;52.054;8.518;2022-12-13T20:00:15;100030.66;;;-4.69;87.85
65716;BME280;63484;52.054;8.518;2022-12-13T20:05:16;100018.72;;;-4.73;87.33
65716;BME280;63484;52.054;8.518;2022-12-13T20:10:16;100030.66;;;-4.72;87.79
65716;BME280;63484;52.054;8.518;2022-12-13T20:15:18;100024.66;;;-4.69;88.21
65716;BME280;63484;52.054;8.518;2022-12-13T20:20:19;100024.63;;;-4.66;87.45
65716;BME280;63484;52.054;8.518;2022-12-13T20:25:19;100020.34;;;-4.64;87.54
65716;BME280;63484;52.054;8.518;2022-12-13T20:30:19;100026.31;;;-4.64;87.64
65716;BME280;63484;52.054;8.518;2022-12-13T20:35:21;100019.47;;;-4.63;87.60
65716;BME280;63484;52.054;8.518;2022-12-13T20:40:21;100016.91;;;-4.63;87.35
65716;BME280;63484;52.054;8.518;2022-12-13T20:45:21;100009.16;;;-4.60;87.43
65716;BME280;63484;52.054;8.518;2022-12-13T20:50:22;100004.09;;;-4.65;87.34
65716;BME280;63484;52.054;8.518;2022-12-13T20:55:22;99988.72;;;-4.63;87.54
65716;BME280;63484;52.054;8.518;2022-12-13T21:00:22;99988.72;;;-4.63;87.51
65716;BME280;63484;52.054;8.518;2022-12-13T21:05:24;99988.72;;;-4.63;87.76
65716;BME280;63484;52.054;8.518;2022-12-13T21:10:24;99981.81;;;-4.58;87.49
65716;BME280;63484;52.054;8.518;2022-12-13T21:15:25;99977.53;;;-4.58;87.54
65716;BME280;63484;52.054;8.518;2022-12-13T21:20:25;99978.41;;;-4.57;87.72
65716;BME280;63484;52.054;8.518;2022-12-13T21:25:25;99962.13;;;-4.55;87.74
65716;BME280;63484;52.054;8.518;2022-12-13T21:30:26;99958.72;;;-4.55;87.69
65716;BME280;63484;52.054;8.518;2022-12-13T21:35:26;99956.19;;;-4.58;87.57
65716;BME280;63484;52.054;8.518;2022-12-13T21:40:26;99946.81;;;-4.59;87.74
65716;BME280;63484;52.054;8.518;2022-12-13T21:45:28;99951.00;;;-4.54;87.70
65716;BME280;63484;52.054;8.518;2022-12-13T21:50:29;99951.84;;;-4.52;87.74
65716;BME280;63484;52.054;8.518;2022-12-13T21:55:29;99939.03;;;-4.53;87.41
65716;BME280;63484;52.054;8.518;2022-12-13T22:00:33;99943.28;;;-4.49;87.34
65716;BME280;63484;52.054;8.518;2022-12-13T22:05:33;99934.69;;;-4.48;87.67
65716;BME280;63484;52.054;8.518;2022-12-13T22:10:33;99914.13;;;-4.44;87.49
65716;BME280;63484;52.054;8.518;2022-12-13T22:15:54;99912.38;;;-4.40;87.13
65716;BME280;63484;52.054;8.518;2022-12-13T22:20:57;99906.44;;;-4.44;87.30
65716;BME280;63484;52.054;8.518;2022-12-13T22:25:58;99900.44;;;-4.44;87.46
65716;BME280;63484;52.054;8.518;2022-12-13T22:30:58;99899.59;;;-4.43;87.42
65716;BME280;63484;52.054;8.518;2022-12-13T22:35:59;99896.16;;;-4.42;87.73
65716;BME280;63484;52.054;8.518;2022-12-13T22:41:01;99891.00;;;-4.39;87.41
65716;BME280;63484;52.054;8.518;2022-12-13T22:46:03;99896.13;;;-4.41;87.64
65716;BME280;63484;52.054;8.518;2022-12-13T22:51:09;99887.53;;;-4.35;86.96
65716;BME280;63484;52.054;8.518;2022-12-13T22:56:13;99890.13;;;-4.38;87.00
65716;BME280;63484;52.054;8.518;2022-12-13T23:01:16;99877.31;;;-4.38;87.41
65716;BME280;63484;52.054;8.518;2022-12-13T23:06:18;99877.38;;;-4.41;87.27
65716;BME280;63484;52.054;8.518;2022-12-13T23:11:19;99881.59;;;-4.40;87.32
65716;BME280;63484;52.054;8.518;2022-12-13T23:16:39;99877.28;;;-4.37;87.33
65716;BME280;63484;52.054;8.518;2022-12-13T23:21:40;99874.75;;;-4.38;87.19
65716;BME280;63484;52.054;8.518;2022-12-13T23:26:40;99875.56;;;-4.35;87.39
65716;BME280;63484;52.054;8.518;2022-12-13T23:31:41;99858.50;;;-4.37;87.41
65716;BME280;63484;52.054;8.518;2022-12-13T23:36:42;99879.75;;;-4.31;87.63
65716;BME280;63484;52.054;8.518;2022-12-13T23:41:42;99873.75;;;-4.30;87.41
65716;BME280;63484;52.054;8.518;2022-12-13T23:46:43;99873.72;;;-4.25;87.20
65716;BME280;63484;52.054;8.518;2022-12-13T23:51:43;99863.50;;;-4.28;87.04
65716;BME280;63484;52.054;8.518;2022-12-13T23:56:45;99857.47;;;-4.26;87.67
